sensor_id;sensor_type;location;lat;lon;timestamp;pressure;altitude;pressure_sealevel;temperature;humidity
73455;BME280;61690;51.824;6.306;2023-02-28T00:01:30;103003.50;;;17.01;40.78
73455;BME280;61690;51.824;6.306;2023-02-28T00:03:55;102998.13;;;17.04;41.01
73455;BME280;61690;51.824;6.306;2023-02-28T00:06:21;103005.19;;;17.02;41.06
73455;BME280;61690;51.824;6.306;2023-02-28T00:08:46;103000.91;;;16.99;40.45
73455;BME280;61690;51.824;6.306;2023-02-28T00:11:13;102997.31;;;17.02;41.16
73455;BME280;61690;51.824;6.306;2023-02-28T00:13:42;103003.56;;;16.98;41.04
73455;BME280;61690;51.824;6.306;2023-02-28T00:16:11;103005.44;;;16.93;41.20
73455;BME280;61690;51.824;6.306;2023-02-28T00:18:38;103000.16;;;16.93;41.18
73455;BME280;61690;51.824;6.306;2023-02-28T00:21:04;103001.97;;;16.91;41.01
73455;BME280;61690;51.824;6.306;2023-02-28T00:23:29;102998.53;;;16.89;41.11
73455;BME280;61690;51.824;6.306;2023-02-28T00:25:55;103001.97;;;16.91;41.28
73455;BME280;61690;51.824;6.306;2023-02-28T00:28:21;102999.38;;;16.89;41.41
73455;BME280;61690;51.824;6.306;2023-02-28T00:30:46;102992.44;;;16.87;41.16
73455;BME280;61690;51.824;6.306;2023-02-28T00:33:11;102984.56;;;16.87;41.17
73455;BME280;61690;51.824;6.306;2023-02-28T00:35:38;102987.22;;;16.85;41.17
73455;BME280;61690;51.824;6.306;2023-02-28T00:38:03;102984.56;;;16.87;41.03
73455;BME280;61690;51.824;6.306;2023-02-28T00:40:29;102991.63;;;16.84;41.25
73455;BME280;61690;51.824;6.306;2023-02-28T00:42:54;103000.53;;;16.76;41.18
73455;BME280;61690;51.824;6.306;2023-02-28T00:45:20;103000.53;;;16.76;41.39
73455;BME280;61690;51.824;6.306;2023-02-28T00:47:45;103011.03;;;16.77;41.26
73455;BME280;61690;51.824;6.306;2023-02-28T00:50:12;103010.97;;;16.82;40.84
73455;BME280;61690;51.824;6.306;2023-02-28T00:52:37;103008.34;;;16.82;40.77
73455;BME280;61690;51.824;6.306;2023-02-28T00:55:02;102993.44;;;16.79;40.67
73455;BME280;61690;51.824;6.306;2023-02-28T00:57:28;102996.19;;;16.76;40.66
73455;BME280;61690;51.824;6.306;2023-02-28T00:59:53;103000.53;;;16.76;41.00
73455;BME280;61690;51.824;6.306;2023-02-28T01:02:22;103001.53;;;16.72;41.30
73455;BME280;61690;51.824;6.306;2023-02-28T01:04:48;103005.97;;;16.68;40.95
73455;BME280;61690;51.824;6.306;2023-02-28T01:07:13;102993.59;;;16.73;41.14
73455;BME280;61690;51.824;6.306;2023-02-28T01:09:40;103010.34;;;16.69;41.17
73455;BME280;61690;51.824;6.306;2023-02-28T01:12:06;103017.31;;;16.70;41.19
73455;BME280;61690;51.824;6.306;2023-02-28T01:14:32;103012.94;;;16.71;41.09
73455;BME280;61690;51.824;6.306;2023-02-28T01:16:58;103008.59;;;16.70;40.86
73455;BME280;61690;51.824;6.306;2023-02-28T01:19:23;103004.34;;;16.64;41.11
73455;BME280;61690;51.824;6.306;2023-02-28T01:21:48;103014.03;;;16.60;41.17
73455;BME280;61690;51.824;6.306;2023-02-28T01:24:13;103014.03;;;16.60;41.27
73455;BME280;61690;51.824;6.306;2023-02-28T01:26:39;103009.59;;;16.64;40.94
73455;BME280;61690;51.824;6.306;2023-02-28T01:29:04;103018.38;;;16.63;41.03
73455;BME280;61690;51.824;6.306;2023-02-28T01:31:29;103019.41;;;16.56;41.10
73455;BME280;61690;51.824;6.306;2023-02-28T01:33:55;103011.59;;;16.53;41.17
73455;BME280;61690;51.824;6.306;2023-02-28T01:36:22;103016.72;;;16.59;41.00
73455;BME280;61690;51.824;6.306;2023-02-28T01:38:49;103009.75;;;16.58;40.79
73455;BME280;61690;51.824;6.306;2023-02-28T01:41:21;103014.13;;;16.57;41.14
73455;BME280;61690;51.824;6.306;2023-02-28T01:46:12;103001.09;;;16.53;41.11
73455;BME280;61690;51.824;6.306;2023-02-28T01:48:42;103004.59;;;16.53;40.79
73455;BME280;61690;51.824;6.306;2023-02-28T01:51:23;103002.03;;;16.50;41.14
73455;BME280;61690;51.824;6.306;2023-02-28T01:53:56;103004.63;;;16.52;40.86
73455;BME280;61690;51.824;6.306;2023-02-28T01:56:27;103008.25;;;16.46;41.09
73455;BME280;61690;51.824;6.306;2023-02-28T01:58:54;103008.22;;;16.48;41.14
73455;BME280;61690;51.824;6.306;2023-02-28T02:01:21;103003.84;;;16.48;41.01
73455;BME280;61690;51.824;6.306;2023-02-28T02:03:55;103009.22;;;16.42;41.01
73455;BME280;61690;51.824;6.306;2023-02-28T02:06:29;103009.97;;;16.47;41.31
73455;BME280;61690;51.824;6.306;2023-02-28T02:08:55;103003.06;;;16.43;41.15
73455;BME280;61690;51.824;6.306;2023-02-28T02:11:21;103009.13;;;16.46;40.78
73455;BME280;61690;51.824;6.306;2023-02-28T02:19:28;102990.81;;;16.43;40.97
73455;BME280;61690;51.824;6.306;2023-02-28T02:27:44;102982.38;;;16.29;41.41
73455;BME280;61690;51.824;6.306;2023-02-28T02:36:24;102981.41;;;16.33;41.25
73455;BME280;61690;51.824;6.306;2023-02-28T02:38:58;102991.88;;;16.35;41.21
73455;BME280;61690;51.824;6.306;2023-02-28T02:44:18;102978.91;;;16.27;41.21
73455;BME280;61690;51.824;6.306;2023-02-28T02:46:47;102979.75;;;16.29;40.93
73455;BME280;61690;51.824;6.306;2023-02-28T02:49:18;102984.13;;;16.30;41.01
73455;BME280;61690;51.824;6.306;2023-02-28T02:51:46;102982.50;;;16.23;41.39
73455;BME280;61690;51.824;6.306;2023-02-28T02:54:33;102977.16;;;16.26;41.14
73455;BME280;61690;51.824;6.306;2023-02-28T02:57:04;102977.16;;;16.27;41.30
73455;BME280;61690;51.824;6.306;2023-02-28T02:59:32;102977.16;;;16.26;41.03
73455;BME280;61690;51.824;6.306;2023-02-28T03:01:59;102986.13;;;16.19;41.15
73455;BME280;61690;51.824;6.306;2023-02-28T03:04:32;102987.78;;;16.23;41.22
73455;BME280;61690;51.824;6.306;2023-02-28T03:06:58;102977.25;;;16.23;41.20
73455;BME280;61690;51.824;6.306;2023-02-28T03:09:25;102993.88;;;16.23;40.98
73455;BME280;61690;51.824;6.306;2023-02-28T03:11:52;102981.53;;;16.27;41.10
73455;BME280;61690;51.824;6.306;2023-02-28T03:33:14;102972.31;;;16.09;41.25
73455;BME280;61690;51.824;6.306;2023-02-28T03:35:59;102975.78;;;16.11;41.42
73455;BME280;61690;51.824;6.306;2023-02-28T03:38:50;102974.06;;;16.08;41.32
73455;BME280;61690;51.824;6.306;2023-02-28T03:41:23;102968.88;;;16.07;41.20
73455;BME280;61690;51.824;6.306;2023-02-28T03:43:59;102968.81;;;16.08;41.09
73455;BME280;61690;51.824;6.306;2023-02-28T03:46:28;102971.53;;;16.04;41.27
73455;BME280;61690;51.824;6.306;2023-02-28T03:49:06;102970.56;;;16.10;41.27
73455;BME280;61690;51.824;6.306;2023-02-28T03:51:35;102975.84;;;16.06;41.39
73455;BME280;61690;51.824;6.306;2023-02-28T03:54:07;102972.41;;;16.04;41.17
73455;BME280;61690;51.824;6.306;2023-02-28T03:56:39;102974.88;;;16.11;41.33
73455;BME280;61690;51.824;6.306;2023-02-28T03:59:13;102964.16;;;16.21;41.02
73455;BME280;61690;51.824;6.306;2023-02-28T04:01:43;102959.56;;;16.31;40.63
73455;BME280;61690;51.824;6.306;2023-02-28T04:04:09;102963.59;;;16.46;40.70
73455;BME280;61690;51.824;6.306;2023-02-28T04:06:36;102970.16;;;16.65;39.97
73455;BME280;61690;51.824;6.306;2023-02-28T04:09:03;102961.19;;;16.74;40.03
73455;BME280;61690;51.824;6.306;2023-02-28T04:11:42;102973.16;;;16.88;39.75
73455;BME280;61690;51.824;6.306;2023-02-28T04:14:10;102963.38;;;16.93;39.58
73455;BME280;61690;51.824;6.306;2023-02-28T04:16:38;102964.06;;;17.01;39.68
73455;BME280;61690;51.824;6.306;2023-02-28T04:19:06;102964.72;;;17.09;39.20
73455;BME280;61690;51.824;6.306;2023-02-28T04:21:39;102963.66;;;17.16;39.27
73455;BME280;61690;51.824;6.306;2023-02-28T04:24:06;102967.94;;;17.20;38.93
73455;BME280;61690;51.824;6.306;2023-02-28T04:26:33;102970.38;;;17.27;39.05
73455;BME280;61690;51.824;6.306;2023-02-28T04:28:59;102970.22;;;17.33;39.01
73455;BME280;61690;51.824;6.306;2023-02-28T04:31:25;102969.19;;;17.38;39.07
73455;BME280;61690;51.824;6.306;2023-02-28T04:33:50;102967.34;;;17.42;39.20
73455;BME280;61690;51.824;6.306;2023-02-28T04:36:16;102964.50;;;17.50;38.60
73455;BME280;61690;51.824;6.306;2023-02-28T04:38:43;102966.13;;;17.54;38.72
73455;BME280;61690;51.824;6.306;2023-02-28T04:41:09;102975.69;;;17.56;39.10
73455;BME280;61690;51.824;6.306;2023-02-28T04:43:34;102970.31;;;17.61;38.50
73455;BME280;61690;51.824;6.306;2023-02-28T04:46:02;102974.59;;;17.65;38.94
73455;BME280;61690;51.824;6.306;2023-02-28T04:48:28;102986.78;;;17.68;38.77
73455;BME280;61690;51.824;6.306;2023-02-28T04:50:55;102984.06;;;17.71;38.57
73455;BME280;61690;51.824;6.306;2023-02-28T04:53:20;102990.97;;;17.75;38.35
73455;BME280;61690;51.824;6.306;2023-02-28T04:55:46;102992.53;;;17.82;38.33
73455;BME280;61690;51.824;6.306;2023-02-28T04:58:13;102994.31;;;17.81;38.52
73455;BME280;61690;51.824;6.306;2023-02-28T05:00:38;102987.19;;;17.85;38.50
73455;BME280;61690;51.824;6.306;2023-02-28T05:03:03;102991.53;;;17.88;38.24
73455;BME280;61690;51.824;6.306;2023-02-28T05:05:29;102994.13;;;17.89;38.12
73455;BME280;61690;51.824;6.306;2023-02-28T05:07:54;102994.19;;;17.86;38.69
73455;BME280;61690;51.824;6.306;2023-02-28T05:10:21;102994.13;;;17.89;38.55
73455;BME280;61690;51.824;6.306;2023-02-28T05:12:46;103000.25;;;17.90;38.39
73455;BME280;61690;51.824;6.306;2023-02-28T05:15:14;102999.09;;;17.98;38.41
73455;BME280;61690;51.824;6.306;2023-02-28T05:17:39;102997.28;;;18.00;38.58
73455;BME280;61690;51.824;6.306;2023-02-28T05:20:05;102999.75;;;18.07;38.09
73455;BME280;61690;51.824;6.306;2023-02-28T05:22:31;103004.59;;;18.20;39.50
73455;BME280;61690;51.824;6.306;2023-02-28T05:24:57;103002.28;;;18.39;39.67
73455;BME280;61690;51.824;6.306;2023-02-28T05:27:22;103004.50;;;18.52;40.06
73455;BME280;61690;51.824;6.306;2023-02-28T05:33:11;103002.06;;;18.74;39.96
73455;BME280;61690;51.824;6.306;2023-02-28T05:35:39;103007.00;;;18.85;39.79
73455;BME280;61690;51.824;6.306;2023-02-28T05:38:05;103005.28;;;18.84;39.87
73455;BME280;61690;51.824;6.306;2023-02-28T05:40:30;103005.06;;;18.90;40.03
73455;BME280;61690;51.824;6.306;2023-02-28T05:42:55;103003.06;;;18.96;39.61
73455;BME280;61690;51.824;6.306;2023-02-28T05:45:22;103009.75;;;18.82;39.59
73455;BME280;61690;51.824;6.306;2023-02-28T05:47:54;103009.00;;;18.76;39.43
73455;BME280;61690;51.824;6.306;2023-02-28T05:50:20;103006.44;;;18.73;39.33
73455;BME280;61690;51.824;6.306;2023-02-28T05:52:52;103007.22;;;18.77;39.24
73455;BME280;61690;51.824;6.306;2023-02-28T05:55:17;103013.41;;;18.76;39.37
73455;BME280;61690;51.824;6.306;2023-02-28T05:57:43;103018.69;;;18.76;39.22
73455;BME280;61690;51.824;6.306;2023-02-28T06:00:10;103018.78;;;18.73;39.37
73455;BME280;61690;51.824;6.306;2023-02-28T06:02:35;103016.19;;;18.71;39.32
73455;BME280;61690;51.824;6.306;2023-02-28T06:05:01;103023.41;;;18.66;39.45
73455;BME280;61690;51.824;6.306;2023-02-28T06:07:26;103023.56;;;18.60;39.77
73455;BME280;61690;51.824;6.306;2023-02-28T06:09:52;103021.84;;;18.59;39.27
73455;BME280;61690;51.824;6.306;2023-02-28T06:12:17;103030.84;;;18.52;39.49
73455;BME280;61690;51.824;6.306;2023-02-28T06:14:42;103032.72;;;18.48;39.52
73455;BME280;61690;51.824;6.306;2023-02-28T06:17:08;103033.72;;;18.44;39.96
73455;BME280;61690;51.824;6.306;2023-02-28T06:19:34;103025.13;;;18.39;39.81
73455;BME280;61690;51.824;6.306;2023-02-28T06:22:03;103031.34;;;18.36;39.47
73455;BME280;61690;51.824;6.306;2023-02-28T06:24:29;103041.34;;;18.25;39.63
73455;BME280;61690;51.824;6.306;2023-02-28T06:26:55;103040.88;;;17.12;34.69
73455;BME280;61690;51.824;6.306;2023-02-28T06:29:22;103038.94;;;16.84;35.43
73455;BME280;61690;51.824;6.306;2023-02-28T06:31:49;103043.88;;;17.33;37.27
73455;BME280;61690;51.824;6.306;2023-02-28T06:34:14;103040.31;;;17.68;36.96
73455;BME280;61690;51.824;6.306;2023-02-28T06:36:41;103038.13;;;17.84;37.02
73455;BME280;61690;51.824;6.306;2023-02-28T06:39:07;103038.91;;;17.88;36.77
73455;BME280;61690;51.824;6.306;2023-02-28T06:41:33;103045.91;;;17.89;37.26
73455;BME280;61690;51.824;6.306;2023-02-28T06:44:04;103052.91;;;17.90;37.24
73455;BME280;61690;51.824;6.306;2023-02-28T06:46:31;103059.94;;;17.89;37.40
73455;BME280;61690;51.824;6.306;2023-02-28T06:48:57;103048.66;;;17.84;37.88
73455;BME280;61690;51.824;6.306;2023-02-28T06:51:22;103055.66;;;17.85;37.87
73455;BME280;61690;51.824;6.306;2023-02-28T06:53:50;103053.00;;;17.85;38.06
73455;BME280;61690;51.824;6.306;2023-02-28T06:56:17;103052.25;;;17.80;38.38
73455;BME280;61690;51.824;6.306;2023-02-28T06:58:49;103047.00;;;17.80;38.50
73455;BME280;61690;51.824;6.306;2023-02-28T07:01:14;103052.34;;;17.77;38.60
73455;BME280;61690;51.824;6.306;2023-02-28T07:03:52;103055.22;;;17.68;39.34
73455;BME280;61690;51.824;6.306;2023-02-28T07:06:19;103057.81;;;17.69;39.16
73455;BME280;61690;51.824;6.306;2023-02-28T07:08:45;103058.75;;;17.68;39.33
73455;BME280;61690;51.824;6.306;2023-02-28T07:11:10;103053.53;;;17.65;39.68
73455;BME280;61690;51.824;6.306;2023-02-28T07:13:36;103065.03;;;17.62;39.85
73455;BME280;61690;51.824;6.306;2023-02-28T07:16:05;103072.09;;;17.60;40.01
73455;BME280;61690;51.824;6.306;2023-02-28T07:18:31;103067.69;;;17.61;40.22
73455;BME280;61690;51.824;6.306;2023-02-28T07:20:56;103062.59;;;17.55;40.19
73455;BME280;61690;51.824;6.306;2023-02-28T07:23:23;103069.50;;;17.59;40.25
73455;BME280;61690;51.824;6.306;2023-02-28T07:25:50;103066.16;;;17.52;40.16
73455;BME280;61690;51.824;6.306;2023-02-28T07:28:16;103067.16;;;17.48;40.63
73455;BME280;61690;51.824;6.306;2023-02-28T07:30:41;103068.94;;;17.46;40.35
73455;BME280;61690;51.824;6.306;2023-02-28T07:33:06;103071.53;;;17.49;40.46
73455;BME280;61690;51.824;6.306;2023-02-28T07:35:33;103071.53;;;17.49;41.05
73455;BME280;61690;51.824;6.306;2023-02-28T07:37:58;103076.00;;;17.46;40.69
73455;BME280;61690;51.824;6.306;2023-02-28T07:40:24;103077.78;;;17.45;40.80
73455;BME280;61690;51.824;6.306;2023-02-28T07:42:50;103071.72;;;17.41;41.10
73455;BME280;61690;51.824;6.306;2023-02-28T07:45:15;103076.97;;;17.41;40.87
73455;BME280;61690;51.824;6.306;2023-02-28T07:47:41;103082.19;;;17.43;40.95
73455;BME280;61690;51.824;6.306;2023-02-28T07:50:09;103078.72;;;17.41;41.24
73455;BME280;61690;51.824;6.306;2023-02-28T07:52:36;103082.28;;;17.40;41.03
73455;BME280;61690;51.824;6.306;2023-02-28T07:55:01;103081.34;;;17.41;41.06
73455;BME280;61690;51.824;6.306;2023-02-28T07:57:26;103094.59;;;17.38;41.17
73455;BME280;61690;51.824;6.306;2023-02-28T07:59:53;103086.69;;;17.39;41.41
73455;BME280;61690;51.824;6.306;2023-02-28T08:02:19;103087.50;;;17.41;41.04
73455;BME280;61690;51.824;6.306;2023-02-28T08:04:45;103086.72;;;17.38;41.14
73455;BME280;61690;51.824;6.306;2023-02-28T08:07:12;103081.47;;;17.36;41.54
73455;BME280;61690;51.824;6.306;2023-02-28T08:09:39;103084.94;;;17.38;41.04
73455;BME280;61690;51.824;6.306;2023-02-28T08:12:04;103078.78;;;17.39;41.28
73455;BME280;61690;51.824;6.306;2023-02-28T08:14:30;103089.38;;;17.36;41.31
73455;BME280;61690;51.824;6.306;2023-02-28T08:16:55;103088.53;;;17.36;41.36
73455;BME280;61690;51.824;6.306;2023-02-28T08:19:20;103086.88;;;17.32;41.22
73455;BME280;61690;51.824;6.306;2023-02-28T08:21:46;103088.56;;;17.34;41.77
73455;BME280;61690;51.824;6.306;2023-02-28T08:24:11;103083.25;;;17.36;41.20
73455;BME280;61690;51.824;6.306;2023-02-28T08:26:36;103090.31;;;17.34;41.52
73455;BME280;61690;51.824;6.306;2023-02-28T08:29:02;103089.44;;;17.33;41.41
73455;BME280;61690;51.824;6.306;2023-02-28T08:31:27;103091.25;;;17.31;41.53
73455;BME280;61690;51.824;6.306;2023-02-28T08:33:52;103081.63;;;17.32;41.48
73455;BME280;61690;51.824;6.306;2023-02-28T08:36:21;103088.59;;;17.33;41.77
73455;BME280;61690;51.824;6.306;2023-02-28T08:38:47;103093.03;;;17.31;41.41
73455;BME280;61690;51.824;6.306;2023-02-28T08:41:12;103093.84;;;17.33;41.80
73455;BME280;61690;51.824;6.306;2023-02-28T08:43:39;103089.41;;;17.35;41.50
73455;BME280;61690;51.824;6.306;2023-02-28T08:46:05;103083.31;;;17.33;41.84
73455;BME280;61690;51.824;6.306;2023-02-28T08:48:33;103091.19;;;17.34;41.96
73455;BME280;61690;51.824;6.306;2023-02-28T08:51:04;103087.81;;;17.28;41.99
73455;BME280;61690;51.824;6.306;2023-02-28T08:53:30;103086.94;;;17.29;41.87
73455;BME280;61690;51.824;6.306;2023-02-28T08:56:00;103090.41;;;17.31;41.92
73455;BME280;61690;51.824;6.306;2023-02-28T08:58:26;103089.56;;;17.29;41.78
73455;BME280;61690;51.824;6.306;2023-02-28T09:00:52;103091.22;;;17.33;42.09
73455;BME280;61690;51.824;6.306;2023-02-28T09:03:18;103093.84;;;17.33;42.11
73455;BME280;61690;51.824;6.306;2023-02-28T09:05:58;103093.84;;;17.33;42.02
73455;BME280;61690;51.824;6.306;2023-02-28T09:08:24;103096.44;;;17.34;41.74
73455;BME280;61690;51.824;6.306;2023-02-28T09:10:50;103089.53;;;17.30;41.79
73455;BME280;61690;51.824;6.306;2023-02-28T09:13:16;103089.56;;;17.29;41.75
73455;BME280;61690;51.824;6.306;2023-02-28T09:15:42;103093.97;;;17.28;41.93
73455;BME280;61690;51.824;6.306;2023-02-28T09:18:07;103092.13;;;17.32;41.91
73455;BME280;61690;51.824;6.306;2023-02-28T09:20:33;103091.31;;;17.30;41.88
73455;BME280;61690;51.824;6.306;2023-02-28T09:22:59;103093.81;;;17.34;42.09
73455;BME280;61690;51.824;6.306;2023-02-28T09:25:25;103074.56;;;17.32;42.14
73455;BME280;61690;51.824;6.306;2023-02-28T09:27:50;103086.88;;;17.32;42.10
73455;BME280;61690;51.824;6.306;2023-02-28T09:30:17;103078.06;;;17.33;42.07
73455;BME280;61690;51.824;6.306;2023-02-28T09:32:43;103075.44;;;17.33;41.87
73455;BME280;61690;51.824;6.306;2023-02-28T09:35:18;103076.28;;;17.33;42.07
73455;BME280;61690;51.824;6.306;2023-02-28T09:37:43;103078.84;;;17.36;41.93
73455;BME280;61690;51.824;6.306;2023-02-28T09:40:10;103073.63;;;17.35;42.22
73455;BME280;61690;51.824;6.306;2023-02-28T09:42:36;103074.44;;;17.37;42.07
73455;BME280;61690;51.824;6.306;2023-02-28T09:45:06;103078.91;;;17.33;42.04
73455;BME280;61690;51.824;6.306;2023-02-28T09:47:43;103068.34;;;17.36;41.92
73455;BME280;61690;51.824;6.306;2023-02-28T09:53:25;103088.59;;;17.33;42.11
73455;BME280;61690;51.824;6.306;2023-02-28T09:55:58;103078.84;;;17.36;41.90
73455;BME280;61690;51.824;6.306;2023-02-28T09:58:50;103072.75;;;17.36;41.89
73455;BME280;61690;51.824;6.306;2023-02-28T10:06:57;103081.50;;;17.35;42.07
73455;BME280;61690;51.824;6.306;2023-02-28T10:09:33;103070.97;;;17.36;42.03
73455;BME280;61690;51.824;6.306;2023-02-28T10:12:03;103067.53;;;17.33;41.99
73455;BME280;61690;51.824;6.306;2023-02-28T10:14:32;103069.22;;;17.35;41.89
73455;BME280;61690;51.824;6.306;2023-02-28T10:17:12;103073.59;;;17.36;42.03
73455;BME280;61690;51.824;6.306;2023-02-28T10:19:58;103068.38;;;17.35;41.77
73455;BME280;61690;51.824;6.306;2023-02-28T10:22:31;103063.09;;;17.35;42.08
73455;BME280;61690;51.824;6.306;2023-02-28T10:24:59;103069.31;;;17.32;42.26
73455;BME280;61690;51.824;6.306;2023-02-28T10:27:31;103072.81;;;17.33;42.19
73455;BME280;61690;51.824;6.306;2023-02-28T10:29:59;103063.09;;;17.35;41.91
73455;BME280;61690;51.824;6.306;2023-02-28T10:32:31;103062.22;;;17.36;41.78
73455;BME280;61690;51.824;6.306;2023-02-28T10:35:01;103058.75;;;17.34;42.20
73455;BME280;61690;51.824;6.306;2023-02-28T10:37:31;103055.22;;;17.35;42.19
73455;BME280;61690;51.824;6.306;2023-02-28T10:39:57;103061.31;;;17.35;41.81
73455;BME280;61690;51.824;6.306;2023-02-28T10:42:27;103065.72;;;17.35;42.02
73455;BME280;61690;51.824;6.306;2023-02-28T10:45:14;103063.09;;;17.35;42.07
73455;BME280;61690;51.824;6.306;2023-02-28T10:47:59;103064.91;;;17.33;42.03
73455;BME280;61690;51.824;6.306;2023-02-28T10:50:37;103064.81;;;17.37;42.33
73455;BME280;61690;51.824;6.306;2023-02-28T10:55:40;103054.31;;;17.36;42.17
73455;BME280;61690;51.824;6.306;2023-02-28T11:03:58;103047.34;;;17.33;41.80
73455;BME280;61690;51.824;6.306;2023-02-28T11:06:30;103049.06;;;17.36;42.16
73455;BME280;61690;51.824;6.306;2023-02-28T11:08:58;103044.69;;;17.35;42.24
73455;BME280;61690;51.824;6.306;2023-02-28T11:11:27;103036.84;;;17.33;42.31
73455;BME280;61690;51.824;6.306;2023-02-28T11:13:56;103033.34;;;17.33;42.01
73455;BME280;61690;51.824;6.306;2023-02-28T11:16:34;103029.91;;;17.31;42.08
73455;BME280;61690;51.824;6.306;2023-02-28T11:19:02;103040.34;;;17.34;42.32
73455;BME280;61690;51.824;6.306;2023-02-28T11:21:31;103038.59;;;17.33;42.19
73455;BME280;61690;51.824;6.306;2023-02-28T11:24:40;103033.38;;;17.31;42.12
73455;BME280;61690;51.824;6.306;2023-02-28T11:27:24;103029.00;;;17.32;41.94
73455;BME280;61690;51.824;6.306;2023-02-28T11:29:50;103026.28;;;17.35;42.42
73455;BME280;61690;51.824;6.306;2023-02-28T11:32:16;103033.28;;;17.36;42.35
73455;BME280;61690;51.824;6.306;2023-02-28T11:34:44;103034.19;;;17.33;42.33
73455;BME280;61690;51.824;6.306;2023-02-28T11:37:17;103030.72;;;17.33;42.11
73455;BME280;61690;51.824;6.306;2023-02-28T11:39:44;103039.47;;;17.33;41.98
73455;BME280;61690;51.824;6.306;2023-02-28T11:47:31;103030.66;;;17.36;42.32
73455;BME280;61690;51.824;6.306;2023-02-28T11:58:14;103033.94;;;17.44;41.89
73455;BME280;61690;51.824;6.306;2023-02-28T12:01:18;103020.78;;;17.44;41.83
73455;BME280;61690;51.824;6.306;2023-02-28T12:07:01;103016.41;;;17.76;41.14
73455;BME280;61690;51.824;6.306;2023-02-28T12:12:34;103007.19;;;17.92;41.02
73455;BME280;61690;51.824;6.306;2023-02-28T12:20:46;102992.66;;;18.09;40.36
73455;BME280;61690;51.824;6.306;2023-02-28T12:23:40;102989.84;;;18.15;40.62
73455;BME280;61690;51.824;6.306;2023-02-28T12:26:46;102992.41;;;18.18;40.46
73455;BME280;61690;51.824;6.306;2023-02-28T12:34:52;102987.47;;;18.35;40.31
73455;BME280;61690;51.824;6.306;2023-02-28T12:37:53;102980.38;;;18.37;40.36
73455;BME280;61690;51.824;6.306;2023-02-28T12:40:27;102977.75;;;18.37;39.81
73455;BME280;61690;51.824;6.306;2023-02-28T12:42:59;102978.44;;;18.42;39.86
73455;BME280;61690;51.824;6.306;2023-02-28T12:45:40;102963.50;;;18.43;40.27
73455;BME280;61690;51.824;6.306;2023-02-28T12:48:09;102963.34;;;18.48;39.91
73455;BME280;61690;51.824;6.306;2023-02-28T12:50:39;102959.81;;;18.49;40.02
73455;BME280;61690;51.824;6.306;2023-02-28T12:53:28;102950.94;;;18.51;39.91
73455;BME280;61690;51.824;6.306;2023-02-28T12:56:27;102949.97;;;18.54;39.79
73455;BME280;61690;51.824;6.306;2023-02-28T12:59:34;102954.34;;;18.55;39.73
73455;BME280;61690;51.824;6.306;2023-02-28T13:08:00;102943.00;;;18.53;39.64
73455;BME280;61690;51.824;6.306;2023-02-28T13:10:46;102939.34;;;18.57;39.80
73455;BME280;61690;51.824;6.306;2023-02-28T13:13:29;102936.75;;;18.55;39.80
73455;BME280;61690;51.824;6.306;2023-02-28T13:16:06;102939.34;;;18.57;39.80
73455;BME280;61690;51.824;6.306;2023-02-28T13:18:44;102924.16;;;18.64;39.52
73455;BME280;61690;51.824;6.306;2023-02-28T13:21:29;102926.53;;;18.71;39.40
73455;BME280;61690;51.824;6.306;2023-02-28T13:24:00;102926.66;;;18.68;39.47
73455;BME280;61690;51.824;6.306;2023-02-28T13:34:27;102920.06;;;18.28;40.94
73455;BME280;61690;51.824;6.306;2023-02-28T13:39:52;102923.44;;;18.33;40.52
73455;BME280;61690;51.824;6.306;2023-02-28T13:47:40;102925.22;;;18.31;40.47
73455;BME280;61690;51.824;6.306;2023-02-28T13:50:32;102929.50;;;18.35;40.09
73455;BME280;61690;51.824;6.306;2023-02-28T14:06:50;102909.78;;;18.47;40.13
73455;BME280;61690;51.824;6.306;2023-02-28T14:09:32;102917.84;;;18.42;40.27
73455;BME280;61690;51.824;6.306;2023-02-28T14:15:03;102904.00;;;18.36;40.50
73455;BME280;61690;51.824;6.306;2023-02-28T14:17:30;102896.50;;;18.50;40.05
73455;BME280;61690;51.824;6.306;2023-02-28T14:19:57;102894.75;;;18.51;40.38
73455;BME280;61690;51.824;6.306;2023-02-28T14:23:17;102905.94;;;18.57;40.16
73455;BME280;61690;51.824;6.306;2023-02-28T14:25:37;102900.63;;;18.59;40.19
73455;BME280;61690;51.824;6.306;2023-02-28T14:28:17;102897.00;;;18.61;40.24
73455;BME280;61690;51.824;6.306;2023-02-28T14:32:05;102902.22;;;18.63;39.68
73455;BME280;61690;51.824;6.306;2023-02-28T14:34:12;102895.25;;;18.62;39.72
73455;BME280;61690;51.824;6.306;2023-02-28T14:36:41;102899.69;;;18.60;40.22
73455;BME280;61690;51.824;6.306;2023-02-28T14:39:12;102898.78;;;18.61;40.16
73455;BME280;61690;51.824;6.306;2023-02-28T14:41:41;102896.19;;;18.59;40.05
73455;BME280;61690;51.824;6.306;2023-02-28T14:44:25;102895.28;;;18.60;39.92
73455;BME280;61690;51.824;6.306;2023-02-28T14:46:56;102898.16;;;18.54;39.83
73455;BME280;61690;51.824;6.306;2023-02-28T14:49:30;102895.56;;;18.53;39.82
73455;BME280;61690;51.824;6.306;2023-02-28T14:54:41;102891.22;;;18.50;39.92
73455;BME280;61690;51.824;6.306;2023-02-28T14:57:21;102892.19;;;18.48;40.18
73455;BME280;61690;51.824;6.306;2023-02-28T15:00:00;102894.13;;;18.42;39.95
73455;BME280;61690;51.824;6.306;2023-02-28T15:02:30;102898.56;;;18.40;40.10
73455;BME280;61690;51.824;6.306;2023-02-28T15:05:01;102891.44;;;18.44;39.85
73455;BME280;61690;51.824;6.306;2023-02-28T15:07:34;102896.19;;;18.59;39.61
73455;BME280;61690;51.824;6.306;2023-02-28T15:10:23;102887.38;;;18.60;40.02
73455;BME280;61690;51.824;6.306;2023-02-28T15:13:06;102890.78;;;18.64;40.34
73455;BME280;61690;51.824;6.306;2023-02-28T15:15:59;102876.97;;;18.83;39.77
73455;BME280;61690;51.824;6.306;2023-02-28T15:18:43;102882.97;;;18.88;40.11
73455;BME280;61690;51.824;6.306;2023-02-28T15:21:18;102885.50;;;18.91;39.97